Time;durP1;ratioP1;P1;durP2;ratioP2;P2;SDS_P1;SDS_P2;PMS_P1;PMS_P2;Temp;Humidity;BMP_temperature;BMP_pressure;BME280_temperature;BME280_humidity;BME280_pressure;Samples;Min_cycle;Max_cycle;Signal;HPM_P1;HPM_P2
2023/09/17 00:01:03;;;;;;;;;;;;;;;;;;7366465;19;1797;-64
2023/09/17 00:03:32;;;;;;;;;;;;;;;;;;7362308;19;779;-63
2023/09/17 00:06:00;;;;;;;;;;;;;;;;;;7364140;19;2118;-63
2023/09/17 00:08:28;;;;;;;;;;;;;;;;;;7366244;19;1863;-63
2023/09/17 00:10:56;;;;;;;;;;;;;;;;;;7371241;19;1657;-63
2023/09/17 00:13:24;;;;;;;;;;;;;;;;;;7374341;19;1439;-64
2023/09/17 00:15:53;;;;;;;;;;;;;;;;;;7369615;19;822;-64
2023/09/17 00:18:21;;;;;;;;;;;;;;;;;;7368073;19;1853;-64
2023/09/17 00:20:49;;;;;;;;;;;;;;;;;;7370942;19;1654;-64
2023/09/17 00:23:17;;;;;;;;;;;;;;;;;;7370492;19;1972;-63
2023/09/17 00:25:45;;;;;;;;;;;;;;;;;;7370945;19;1424;-64
2023/09/17 00:28:13;;;;;;;;;;;;;;;;;;7370158;19;1601;-63
2023/09/17 00:30:42;;;;;;;;;;;;;;;;;;7372022;19;1339;-63
2023/09/17 00:33:10;;;;;;;;;;;;;;;;;;7371857;19;1669;-64
2023/09/17 00:35:38;;;;;;;;;;;;;;;;;;7370160;19;1317;-64
2023/09/17 00:38:06;;;;;;;;;;;;;;;;;;7366768;19;1845;-63
2023/09/17 00:40:37;;;;;;;;;;;;;;;;;;7367496;19;1719;-64
2023/09/17 00:43:06;;;;;;;;;;;;;;;;;;7373302;19;1380;-64
2023/09/17 00:45:34;;;;;;;;;;;;;;;;;;7370441;19;937;-64
2023/09/17 00:48:03;;;;;;;;;;;;;;;;;;7368880;19;1931;-64
2023/09/17 00:50:31;;;;;;;;;;;;;;;;;;7371119;19;2088;-64
2023/09/17 00:52:59;;;;;;;;;;;;;;;;;;7369693;19;1957;-63
2023/09/17 00:55:29;;;;;;;;;;;;;;;;;;7367570;19;1774;-62
2023/09/17 00:57:58;;;;;;;;;;;;;;;;;;7371407;19;1978;-62
2023/09/17 01:00:26;;;;;;;;;;;;;;;;;;7365627;19;1853;-62
2023/09/17 01:02:54;;;;;;;;;;;;;;;;;;7375406;19;1888;-61
2023/09/17 01:05:22;;;;;;;;;;;;;;;;;;7380211;19;1302;-62
2023/09/17 01:07:50;;;;;;;;;;;;;;;;;;7371491;19;1283;-62
2023/09/17 01:10:19;;;;;;;;;;;;;;;;;;7378733;19;1702;-62
2023/09/17 01:12:47;;;;;;;;;;;;;;;;;;7379114;19;1336;-63
2023/09/17 01:15:15;;;;;;;;;;;;;;;;;;7374492;19;834;-61
2023/09/17 01:17:43;;;;;;;;;;;;;;;;;;7374577;19;1600;-62
2023/09/17 01:20:29;;;;;;;;;;;;;;;;;;7373634;19;1865;-62
2023/09/17 01:22:59;;;;;;;;;;;;;;;;;;7379047;19;1767;-62
2023/09/17 01:25:27;;;;;;;;;;;;;;;;;;7377093;19;2120;-63
2023/09/17 01:27:56;;;;;;;;;;;;;;;;;;7371534;19;1286;-63
2023/09/17 01:30:24;;;;;;;;;;;;;;;;;;7372350;19;1954;-61
2023/09/17 01:32:53;;;;;;;;;;;;;;;;;;7373138;19;1473;-63
2023/09/17 01:35:22;;;;;;;;;;;;;;;;;;7366622;19;782;-61
2023/09/17 01:37:50;;;;;;;;;;;;;;;;;;7367023;19;1358;-62
2023/09/17 01:40:19;;;;;;;;;;;;;;;;;;7365973;19;1921;-63
2023/09/17 01:42:48;;;;;;;;;;;;;;;;;;7372305;19;1649;-61
2023/09/17 01:45:16;;;;;;;;;;;;;;;;;;7365553;19;793;-62
2023/09/17 01:47:45;;;;;;;;;;;;;;;;;;7366564;19;1233;-61
2023/09/17 01:50:15;;;;;;;;;;;;;;;;;;7363838;19;1890;-61
2023/09/17 01:52:43;;;;;;;;;;;;;;;;;;7367983;19;1731;-62
2023/09/17 01:55:12;;;;;;;;;;;;;;;;;;7369504;19;1517;-62
2023/09/17 01:57:41;;;;;;;;;;;;;;;;;;7366376;19;1281;-62
2023/09/17 02:00:14;;;;;;;;;;;;;;;;;;7362185;19;1871;-62
2023/09/17 02:02:42;;;;;;;;;;;;;;;;;;7369185;19;1710;-61
2023/09/17 02:05:10;;;;;;;;;;;;;;;;;;7366801;19;1948;-61
2023/09/17 02:07:39;;;;;;;;;;;;;;;;;;7367694;19;1611;-60
2023/09/17 02:10:08;;;;;;;;;;;;;;;;;;7367299;19;764;-61
2023/09/17 02:12:36;;;;;;;;;;;;;;;;;;7367265;19;885;-62
2023/09/17 02:15:05;;;;;;;;;;;;;;;;;;7366707;19;1793;-59
2023/09/17 02:17:33;;;;;;;;;;;;;;;;;;7367957;19;1819;-60
2023/09/17 02:20:02;;;;;;;;;;;;;;;;;;7363289;19;1883;-61
2023/09/17 02:22:30;;;;;;;;;;;;;;;;;;7367278;19;857;-61
2023/09/17 02:24:58;;;;;;;;;;;;;;;;;;7364983;19;854;-62
2023/09/17 02:27:27;;;;;;;;;;;;;;;;;;7365136;19;1346;-62
2023/09/17 02:29:55;;;;;;;;;;;;;;;;;;7363384;19;966;-62
2023/09/17 02:32:23;;;;;;;;;;;;;;;;;;7366474;19;1795;-61
2023/09/17 02:34:51;;;;;;;;;;;;;;;;;;7362328;19;1786;-61
2023/09/17 02:37:20;;;;;;;;;;;;;;;;;;7368310;19;1644;-61
2023/09/17 02:39:48;;;;;;;;;;;;;;;;;;7364455;19;1857;-60
2023/09/17 02:42:16;;;;;;;;;;;;;;;;;;7362613;19;1592;-61
2023/09/17 02:44:45;;;;;;;;;;;;;;;;;;7359578;19;1885;-61
2023/09/17 02:47:13;;;;;;;;;;;;;;;;;;7369447;19;1694;-62
2023/09/17 02:49:41;;;;;;;;;;;;;;;;;;7367985;19;1991;-62
2023/09/17 02:52:09;;;;;;;;;;;;;;;;;;7365711;19;2021;-62
2023/09/17 02:54:38;;;;;;;;;;;;;;;;;;7367333;19;1852;-62
2023/09/17 02:57:07;;;;;;;;;;;;;;;;;;7368696;19;1671;-61
2023/09/17 02:59:35;;;;;;;;;;;;;;;;;;7364662;19;1866;-61
2023/09/17 03:02:03;;;;;;;;;;;;;;;;;;7365483;19;2158;-61
2023/09/17 03:04:33;;;;;;;;;;;;;;;;;;7366454;19;1488;-61
2023/09/17 03:07:04;;;;;;;;;;;;;;;;;;7365639;19;1296;-60
2023/09/17 03:09:32;;;;;;;;;;;;;;;;;;7368341;19;1677;-60
2023/09/17 03:12:01;;;;;;;;;;;;;;;;;;7366798;19;1595;-60
2023/09/17 03:14:29;;;;;;;;;;;;;;;;;;7367980;19;1493;-59
2023/09/17 03:16:57;;;;;;;;;;;;;;;;;;7365083;19;1802;-61
2023/09/17 03:19:25;;;;;;;;;;;;;;;;;;7365243;19;1847;-60
2023/09/17 03:21:54;;;;;;;;;;;;;;;;;;7367076;19;1669;-60
2023/09/17 03:24:22;;;;;;;;;;;;;;;;;;7364750;19;873;-59
2023/09/17 03:26:50;;;;;;;;;;;;;;;;;;7366114;19;1817;-59
2023/09/17 03:29:19;;;;;;;;;;;;;;;;;;7368504;19;1511;-60
2023/09/17 03:31:48;;;;;;;;;;;;;;;;;;7362965;19;933;-56
2023/09/17 03:34:16;;;;;;;;;;;;;;;;;;7365850;19;1707;-58
2023/09/17 03:36:44;;;;;;;;;;;;;;;;;;7364708;19;1874;-60
2023/09/17 03:39:13;;;;;;;;;;;;;;;;;;7363990;19;1854;-61
2023/09/17 03:41:41;;;;;;;;;;;;;;;;;;7369727;19;1723;-60
2023/09/17 03:44:09;;;;;;;;;;;;;;;;;;7372938;19;1492;-63
2023/09/17 03:46:38;;;;;;;;;;;;;;;;;;7371366;19;1746;-60
2023/09/17 03:49:06;;;;;;;;;;;;;;;;;;7368908;19;1735;-63
2023/09/17 03:51:34;;;;;;;;;;;;;;;;;;7368782;19;1752;-61
2023/09/17 03:54:04;;;;;;;;;;;;;;;;;;7373144;19;1774;-59
2023/09/17 03:56:32;;;;;;;;;;;;;;;;;;7368862;19;1995;-61
2023/09/17 03:59:00;;;;;;;;;;;;;;;;;;7370447;19;1849;-61
2023/09/17 04:01:29;;;;;;;;;;;;;;;;;;7372326;19;1851;-60
2023/09/17 04:03:55;;;;;;;;;;;;;;;;;;7371602;19;1919;-61
2023/09/17 04:06:23;;;;;;;;;;;;;;;;;;7368775;19;1975;-61
2023/09/17 04:08:51;;;;;;;;;;;;;;;;;;7369885;19;1978;-61
2023/09/17 04:11:19;;;;;;;;;;;;;;;;;;7375355;19;1652;-60
2023/09/17 04:13:48;;;;;;;;;;;;;;;;;;7369429;19;741;-60
2023/09/17 04:16:20;;;;;;;;;;;;;;;;;;7367948;19;2199;-61
2023/09/17 04:18:49;;;;;;;;;;;;;;;;;;7369088;19;1854;-60
2023/09/17 04:21:17;;;;;;;;;;;;;;;;;;7365647;19;2082;-61
2023/09/17 04:23:46;;;;;;;;;;;;;;;;;;7371465;19;1941;-57
2023/09/17 04:26:15;;;;;;;;;;;;;;;;;;7373573;19;1498;-61
2023/09/17 04:28:46;;;;;;;;;;;;;;;;;;7365285;19;1366;-63
2023/09/17 04:31:14;;;;;;;;;;;;;;;;;;7368069;19;1857;-63
2023/09/17 04:33:42;;;;;;;;;;;;;;;;;;7375099;19;1589;-63
2023/09/17 04:36:10;;;;;;;;;;;;;;;;;;7372468;19;1913;-61
2023/09/17 04:38:38;;;;;;;;;;;;;;;;;;7367086;19;1292;-63
2023/09/17 04:41:06;;;;;;;;;;;;;;;;;;7368887;19;2051;-64
2023/09/17 04:43:35;;;;;;;;;;;;;;;;;;7371243;19;1577;-62
2023/09/17 04:46:04;;;;;;;;;;;;;;;;;;7368364;19;1823;-63
2023/09/17 04:48:34;;;;;;;;;;;;;;;;;;7369794;19;1622;-63
2023/09/17 04:51:03;;;;;;;;;;;;;;;;;;7367110;19;875;-60
2023/09/17 04:53:31;;;;;;;;;;;;;;;;;;7369428;19;1588;-62
2023/09/17 04:55:59;;;;;;;;;;;;;;;;;;7370208;19;1777;-63
2023/09/17 04:58:33;;;;;;;;;;;;;;;;;;7364815;19;1792;-65
2023/09/17 05:01:06;;;;;;;;;;;;;;;;;;7367249;19;1857;-63
2023/09/17 05:03:34;;;;;;;;;;;;;;;;;;7367873;19;882;-65
2023/09/17 05:06:02;;;;;;;;;;;;;;;;;;7366459;19;1843;-64
2023/09/17 05:08:31;;;;;;;;;;;;;;;;;;7370088;19;1355;-64
2023/09/17 05:10:59;;;;;;;;;;;;;;;;;;7370613;19;1711;-67
2023/09/17 05:13:27;;;;;;;;;;;;;;;;;;7369946;19;1700;-64
2023/09/17 05:15:56;;;;;;;;;;;;;;;;;;7367178;19;810;-65
2023/09/17 05:18:24;;;;;;;;;;;;;;;;;;7365726;19;1990;-63
2023/09/17 05:20:53;;;;;;;;;;;;;;;;;;7367421;19;1851;-63
2023/09/17 05:23:23;;;;;;;;;;;;;;;;;;7369824;19;1499;-64
2023/09/17 05:25:55;;;;;;;;;;;;;;;;;;7366815;19;876;-64
2023/09/17 05:28:25;;;;;;;;;;;;;;;;;;7367697;19;1850;-64
2023/09/17 05:30:53;;;;;;;;;;;;;;;;;;7367246;19;898;-65
2023/09/17 05:33:21;;;;;;;;;;;;;;;;;;7366867;19;822;-64
2023/09/17 05:35:52;;;;;;;;;;;;;;;;;;7366419;19;820;-64
2023/09/17 05:38:20;;;;;;;;;;;;;;;;;;7366777;19;1396;-64
2023/09/17 05:40:49;;;;;;;;;;;;;;;;;;7365397;19;1826;-63
2023/09/17 05:43:17;;;;;;;;;;;;;;;;;;7366748;19;2001;-62
2023/09/17 05:45:45;;;;;;;;;;;;;;;;;;7371240;19;1487;-64
2023/09/17 05:48:13;;;;;;;;;;;;;;;;;;7364825;19;1301;-64
2023/09/17 05:50:41;;;;;;;;;;;;;;;;;;7366283;19;1794;-64
2023/09/17 05:53:09;;;;;;;;;;;;;;;;;;7370117;19;1735;-66
2023/09/17 05:55:37;;;;;;;;;;;;;;;;;;7365465;19;832;-64
2023/09/17 05:58:06;;;;;;;;;;;;;;;;;;7366942;19;2023;-64
2023/09/17 06:00:36;;;;;;;;;;;;;;;;;;7365962;19;1874;-64
2023/09/17 06:03:05;;;;;;;;;;;;;;;;;;7364222;19;875;-63
2023/09/17 06:05:33;;;;;;;;;;;;;;;;;;7364963;19;881;-63
2023/09/17 06:08:01;;;;;;;;;;;;;;;;;;7365036;19;1333;-64
2023/09/17 06:10:29;;;;;;;;;;;;;;;;;;7366802;19;1612;-66
2023/09/17 06:12:58;;;;;;;;;;;;;;;;;;7371380;19;1874;-63
2023/09/17 06:15:26;;;;;;;;;;;;;;;;;;7371781;19;1628;-64
2023/09/17 06:17:55;;;;;;;;;;;;;;;;;;7365429;19;1772;-63
2023/09/17 06:20:23;;;;;;;;;;;;;;;;;;7370005;19;1865;-65
2023/09/17 06:22:51;;;;;;;;;;;;;;;;;;7366696;19;871;-65
2023/09/17 06:25:19;;;;;;;;;;;;;;;;;;7364531;19;1839;-65
2023/09/17 06:27:47;;;;;;;;;;;;;;;;;;7369584;19;1655;-65
2023/09/17 06:30:16;;;;;;;;;;;;;;;;;;7366399;19;870;-64
2023/09/17 06:32:45;;;;;;;;;;;;;;;;;;7366137;19;834;-64
2023/09/17 06:35:13;;;;;;;;;;;;;;;;;;7364060;19;1748;-64
2023/09/17 06:37:41;;;;;;;;;;;;;;;;;;7366456;19;1343;-65
2023/09/17 06:40:10;;;;;;;;;;;;;;;;;;7364769;19;1845;-65
2023/09/17 06:42:39;;;;;;;;;;;;;;;;;;7365714;19;810;-66
2023/09/17 06:45:07;;;;;;;;;;;;;;;;;;7367182;19;1865;-65
2023/09/17 06:47:35;;;;;;;;;;;;;;;;;;7369081;19;1479;-65
2023/09/17 06:50:03;;;;;;;;;;;;;;;;;;7366039;19;880;-66
2023/09/17 06:52:32;;;;;;;;;;;;;;;;;;7368266;19;1961;-65
2023/09/17 06:55:00;;;;;;;;;;;;;;;;;;7369350;19;1466;-65
2023/09/17 06:57:28;;;;;;;;;;;;;;;;;;7363845;19;1919;-65
2023/09/17 06:59:56;;;;;;;;;;;;;;;;;;7369841;19;2103;-64
2023/09/17 07:02:24;;;;;;;;;;;;;;;;;;7370275;19;1524;-65
2023/09/17 07:04:53;;;;;;;;;;;;;;;;;;7365649;19;741;-63
2023/09/17 07:07:21;;;;;;;;;;;;;;;;;;7365319;19;1950;-64
2023/09/17 07:09:49;;;;;;;;;;;;;;;;;;7369443;19;1690;-65
2023/09/17 07:12:18;;;;;;;;;;;;;;;;;;7363485;19;861;-65
2023/09/17 07:14:46;;;;;;;;;;;;;;;;;;7365516;19;860;-64
2023/09/17 07:17:15;;;;;;;;;;;;;;;;;;7372087;19;1288;-64
2023/09/17 07:19:43;;;;;;;;;;;;;;;;;;7372970;19;773;-63
2023/09/17 07:22:14;;;;;;;;;;;;;;;;;;7370878;19;1845;-63
2023/09/17 07:24:42;;;;;;;;;;;;;;;;;;7371649;19;749;-64
2023/09/17 07:27:11;;;;;;;;;;;;;;;;;;7373264;19;1280;-63
2023/09/17 07:29:39;;;;;;;;;;;;;;;;;;7371218;19;1906;-63
2023/09/17 07:32:07;;;;;;;;;;;;;;;;;;7373390;19;1749;-62
2023/09/17 07:34:35;;;;;;;;;;;;;;;;;;7373196;19;1953;-63
2023/09/17 07:37:04;;;;;;;;;;;;;;;;;;7373318;19;1479;-63
2023/09/17 07:39:32;;;;;;;;;;;;;;;;;;7373992;19;1716;-63
2023/09/17 07:42:00;;;;;;;;;;;;;;;;;;7374350;19;1880;-63
2023/09/17 07:44:28;;;;;;;;;;;;;;;;;;7371352;19;1879;-63
2023/09/17 07:46:57;;;;;;;;;;;;;;;;;;7373056;19;1717;-63
2023/09/17 07:49:28;;;;;;;;;;;;;;;;;;7373801;19;1864;-63
2023/09/17 07:51:57;;;;;;;;;;;;;;;;;;7371948;19;1835;-63
2023/09/17 07:54:25;;;;;;;;;;;;;;;;;;7374392;19;1875;-62
2023/09/17 07:56:53;;;;;;;;;;;;;;;;;;7372758;19;1629;-61
2023/09/17 07:59:21;;;;;;;;;;;;;;;;;;7373573;19;1715;-63
2023/09/17 08:01:51;;;;;;;;;;;;;;;;;;7370888;19;2056;-63
2023/09/17 08:04:19;;;;;;;;;;;;;;;;;;7374053;19;1831;-62
2023/09/17 08:06:48;;;;;;;;;;;;;;;;;;7371754;19;1829;-62
2023/09/17 08:09:16;;;;;;;;;;;;;;;;;;7371925;19;2087;-63
2023/09/17 08:11:45;;;;;;;;;;;;;;;;;;7372696;19;1710;-62
2023/09/17 08:14:13;;;;;;;;;;;;;;;;;;7372567;19;1935;-60
2023/09/17 08:16:41;;;;;;;;;;;;;;;;;;7374210;19;2255;-61
2023/09/17 08:19:10;;;;;;;;;;;;;;;;;;7372568;19;1863;-61
2023/09/17 08:21:38;;;;;;;;;;;;;;;;;;7371665;19;1953;-61
2023/09/17 08:24:06;;;;;;;;;;;;;;;;;;7374057;19;1666;-61
2023/09/17 08:26:34;;;;;;;;;;;;;;;;;;7367889;19;805;-60
2023/09/17 08:29:05;;;;;;;;;;;;;;;;;;7369024;19;1247;-62
2023/09/17 08:31:33;;;;;;;;;;;;;;;;;;7370890;19;1803;-63
2023/09/17 08:34:03;;;;;;;;;;;;;;;;;;7373137;19;1869;-63
2023/09/17 08:36:32;;;;;;;;;;;;;;;;;;7371721;19;1956;-61
2023/09/17 08:39:01;;;;;;;;;;;;;;;;;;7370709;19;1919;-62
2023/09/17 08:41:29;;;;;;;;;;;;;;;;;;7373084;19;1867;-61
2023/09/17 08:43:57;;;;;;;;;;;;;;;;;;7370823;19;1655;-63
2023/09/17 08:46:26;;;;;;;;;;;;;;;;;;7371476;19;1680;-61
2023/09/17 08:48:54;;;;;;;;;;;;;;;;;;7370267;19;1980;-62
2023/09/17 08:51:23;;;;;;;;;;;;;;;;;;7372377;19;1804;-61
2023/09/17 08:53:51;;;;;;;;;;;;;;;;;;7372338;19;1588;-60
2023/09/17 08:56:19;;;;;;;;;;;;;;;;;;7373453;19;1638;-61
2023/09/17 08:58:47;;;;;;;;;;;;;;;;;;7367920;19;1636;-62
2023/09/17 09:01:16;;;;;;;;;;;;;;;;;;7371441;19;1862;-62
2023/09/17 09:03:44;;;;;;;;;;;;;;;;;;7371746;19;1678;-62
2023/09/17 09:06:12;;;;;;;;;;;;;;;;;;7368520;19;861;-61
2023/09/17 09:08:40;;;;;;;;;;;;;;;;;;7368232;19;1990;-62
2023/09/17 09:11:09;;;;;;;;;;;;;;;;;;7373237;19;1482;-62
2023/09/17 09:13:37;;;;;;;;;;;;;;;;;;7368873;19;2033;-62
2023/09/17 09:16:05;;;;;;;;;;;;;;;;;;7372151;19;1450;-60
2023/09/17 09:18:34;;;;;;;;;;;;;;;;;;7368668;19;1539;-61
2023/09/17 09:21:02;;;;;;;;;;;;;;;;;;7370365;19;1851;-63
2023/09/17 09:23:30;;;;;;;;;;;;;;;;;;7373360;19;1285;-61
2023/09/17 09:25:59;;;;;;;;;;;;;;;;;;7369073;19;829;-61
2023/09/17 09:28:27;;;;;;;;;;;;;;;;;;7366635;19;1359;-60
2023/09/17 09:30:55;;;;;;;;;;;;;;;;;;7370515;19;2087;-61
2023/09/17 09:33:23;;;;;;;;;;;;;;;;;;7368070;19;783;-61
2023/09/17 09:35:51;;;;;;;;;;;;;;;;;;7367403;19;761;-61
2023/09/17 09:38:20;;;;;;;;;;;;;;;;;;7366607;19;1315;-62
2023/09/17 09:40:48;;;;;;;;;;;;;;;;;;7368847;19;1882;-61
2023/09/17 09:43:16;;;;;;;;;;;;;;;;;;7372668;19;1626;-59
2023/09/17 09:45:44;;;;;;;;;;;;;;;;;;7367295;19;1766;-61
2023/09/17 09:48:12;;;;;;;;;;;;;;;;;;7369825;19;1440;-62
2023/09/17 09:50:41;;;;;;;;;;;;;;;;;;7368126;19;877;-61
2023/09/17 09:53:09;;;;;;;;;;;;;;;;;;7368140;19;798;-62
2023/09/17 09:55:37;;;;;;;;;;;;;;;;;;7367255;19;928;-61
2023/09/17 09:58:05;;;;;;;;;;;;;;;;;;7368586;19;2081;-61
2023/09/17 10:00:33;;;;;;;;;;;;;;;;;;7370753;19;2214;-61
2023/09/17 10:03:01;;;;;;;;;;;;;;;;;;7368323;19;1842;-60
2023/09/17 10:05:30;;;;;;;;;;;;;;;;;;7371510;19;1717;-62
2023/09/17 10:07:58;;;;;;;;;;;;;;;;;;7367191;19;2022;-62
2023/09/17 10:10:26;;;;;;;;;;;;;;;;;;7368301;19;1718;-62
2023/09/17 10:12:54;;;;;;;;;;;;;;;;;;7370845;19;1759;-61
2023/09/17 10:15:22;;;;;;;;;;;;;;;;;;7366740;19;778;-61
2023/09/17 10:17:50;;;;;;;;;;;;;;;;;;7366877;19;1290;-61
2023/09/17 10:20:18;;;;;;;;;;;;;;;;;;7367378;19;838;-61
2023/09/17 10:22:47;;;;;;;;;;;;;;;;;;7365327;19;1847;-62
2023/09/17 10:25:16;;;;;;;;;;;;;;;;;;7365772;19;749;-62
2023/09/17 10:27:45;;;;;;;;;;;;;;;;;;7365731;19;1267;-63
2023/09/17 10:30:13;;;;;;;;;;;;;;;;;;7366723;19;853;-62
2023/09/17 10:32:41;;;;;;;;;;;;;;;;;;7366754;19;815;-62
2023/09/17 10:35:09;;;;;;;;;;;;;;;;;;7365808;19;799;-60
2023/09/17 10:37:37;;;;;;;;;;;;;;;;;;7362997;19;1939;-63
2023/09/17 10:40:09;;;;;;;;;;;;;;;;;;7368159;19;1941;-63
2023/09/17 10:42:38;;;;;;;;;;;;;;;;;;7366906;19;2112;-63
2023/09/17 10:45:07;;;;;;;;;;;;;;;;;;7369913;19;1725;-62
2023/09/17 10:47:36;;;;;;;;;;;;;;;;;;7365193;19;1339;-63
2023/09/17 10:50:04;;;;;;;;;;;;;;;;;;7364660;19;882;-62
2023/09/17 10:52:32;;;;;;;;;;;;;;;;;;7366266;19;865;-63
2023/09/17 10:55:00;;;;;;;;;;;;;;;;;;7368161;19;1826;-62
2023/09/17 10:57:29;;;;;;;;;;;;;;;;;;7370151;19;1464;-63
2023/09/17 10:59:57;;;;;;;;;;;;;;;;;;7365795;19;837;-63
2023/09/17 11:02:25;;;;;;;;;;;;;;;;;;7364520;19;1869;-63
2023/09/17 11:04:54;;;;;;;;;;;;;;;;;;7365488;19;809;-63
2023/09/17 11:07:22;;;;;;;;;;;;;;;;;;7366207;19;1706;-61
2023/09/17 11:09:50;;;;;;;;;;;;;;;;;;7368030;19;2091;-62
2023/09/17 11:12:22;;;;;;;;;;;;;;;;;;7370999;19;1416;-61
2023/09/17 11:14:51;;;;;;;;;;;;;;;;;;7365202;19;759;-62
2023/09/17 11:17:19;;;;;;;;;;;;;;;;;;7367472;19;1973;-62
2023/09/17 11:19:47;;;;;;;;;;;;;;;;;;7368953;19;1447;-65
2023/09/17 11:22:16;;;;;;;;;;;;;;;;;;7364773;19;1835;-65
2023/09/17 11:24:44;;;;;;;;;;;;;;;;;;7364645;19;2096;-61
2023/09/17 11:27:12;;;;;;;;;;;;;;;;;;7368188;19;1475;-60
2023/09/17 11:29:40;;;;;;;;;;;;;;;;;;7364428;19;836;-62
2023/09/17 11:32:08;;;;;;;;;;;;;;;;;;7366093;19;2107;-62
2023/09/17 11:34:37;;;;;;;;;;;;;;;;;;7366946;19;1696;-61
2023/09/17 11:37:05;;;;;;;;;;;;;;;;;;7367608;19;1552;-61
2023/09/17 11:39:34;;;;;;;;;;;;;;;;;;7367428;19;1461;-62
2023/09/17 11:42:03;;;;;;;;;;;;;;;;;;7366325;19;2116;-61
2023/09/17 11:44:31;;;;;;;;;;;;;;;;;;7364011;19;831;-62
2023/09/17 11:46:59;;;;;;;;;;;;;;;;;;7364127;19;1262;-61
2023/09/17 11:49:27;;;;;;;;;;;;;;;;;;7363409;19;782;-62
2023/09/17 11:51:57;;;;;;;;;;;;;;;;;;7365215;19;1806;-61
2023/09/17 11:54:30;;;;;;;;;;;;;;;;;;7367866;19;1177;-61
2023/09/17 11:56:58;;;;;;;;;;;;;;;;;;7363669;19;1280;-61
2023/09/17 11:59:28;;;;;;;;;;;;;;;;;;7364473;19;1762;-59
2023/09/17 12:01:56;;;;;;;;;;;;;;;;;;7368334;19;1862;-63
2023/09/17 12:04:25;;;;;;;;;;;;;;;;;;7370556;19;797;-61
2023/09/17 12:06:53;;;;;;;;;;;;;;;;;;7373053;19;1791;-61
2023/09/17 12:09:28;;;;;;;;;;;;;;;;;;7373662;19;1720;-62
2023/09/17 12:11:56;;;;;;;;;;;;;;;;;;7372465;19;1609;-61
2023/09/17 12:14:24;;;;;;;;;;;;;;;;;;7370310;19;1792;-62
2023/09/17 12:16:52;;;;;;;;;;;;;;;;;;7373427;19;1710;-62
2023/09/17 12:19:20;;;;;;;;;;;;;;;;;;7371703;19;1917;-60
2023/09/17 12:21:50;;;;;;;;;;;;;;;;;;7372759;19;1854;-61
2023/09/17 12:24:15;;;;;;;;;;;;;;;;;;7369783;19;825;-61
2023/09/17 12:26:56;;;;;;;;;;;;;;;;;;7368863;19;910;-60
2023/09/17 12:29:24;;;;;;;;;;;;;;;;;;7370299;19;907;-61
2023/09/17 12:31:52;;;;;;;;;;;;;;;;;;7370280;19;798;-59
2023/09/17 12:34:20;;;;;;;;;;;;;;;;;;7369664;19;927;-63
2023/09/17 12:36:48;;;;;;;;;;;;;;;;;;7369829;19;1137;-57
2023/09/17 12:39:17;;;;;;;;;;;;;;;;;;7368752;19;1384;-58
2023/09/17 12:41:45;;;;;;;;;;;;;;;;;;7369509;19;1873;-61
2023/09/17 12:44:14;;;;;;;;;;;;;;;;;;7372801;19;1717;-62
2023/09/17 12:46:42;;;;;;;;;;;;;;;;;;7370076;19;1725;-62
2023/09/17 12:49:10;;;;;;;;;;;;;;;;;;7370895;19;1781;-61
2023/09/17 12:51:39;;;;;;;;;;;;;;;;;;7367332;19;846;-59
2023/09/17 12:54:07;;;;;;;;;;;;;;;;;;7368640;19;793;-61
2023/09/17 12:56:35;;;;;;;;;;;;;;;;;;7370245;19;2328;-62
2023/09/17 12:59:04;;;;;;;;;;;;;;;;;;7370053;19;1451;-59
2023/09/17 13:01:32;;;;;;;;;;;;;;;;;;7372116;19;2108;-60
2023/09/17 13:04:02;;;;;;;;;;;;;;;;;;7370193;19;1842;-61
2023/09/17 13:06:30;;;;;;;;;;;;;;;;;;7368007;19;956;-62
2023/09/17 13:08:58;;;;;;;;;;;;;;;;;;7366138;19;1345;-61
2023/09/17 13:11:26;;;;;;;;;;;;;;;;;;7368693;19;805;-62
2023/09/17 13:13:54;;;;;;;;;;;;;;;;;;7368927;19;1656;-61
2023/09/17 13:16:22;;;;;;;;;;;;;;;;;;7371090;19;1536;-60
2023/09/17 13:18:50;;;;;;;;;;;;;;;;;;7368796;19;1801;-61
2023/09/17 13:21:18;;;;;;;;;;;;;;;;;;7372332;19;1593;-59
2023/09/17 13:23:47;;;;;;;;;;;;;;;;;;7366102;19;1869;-61
2023/09/17 13:26:15;;;;;;;;;;;;;;;;;;7367455;19;1699;-62
2023/09/17 13:28:43;;;;;;;;;;;;;;;;;;7367711;19;1815;-63
2023/09/17 13:31:11;;;;;;;;;;;;;;;;;;7367712;19;1009;-62
2023/09/17 13:33:39;;;;;;;;;;;;;;;;;;7366857;19;815;-61
2023/09/17 13:36:07;;;;;;;;;;;;;;;;;;7367050;19;826;-61
2023/09/17 13:38:36;;;;;;;;;;;;;;;;;;7365631;19;1641;-61
2023/09/17 13:41:04;;;;;;;;;;;;;;;;;;7370904;19;1467;-63
2023/09/17 13:43:32;;;;;;;;;;;;;;;;;;7365446;19;1949;-62
2023/09/17 13:46:01;;;;;;;;;;;;;;;;;;7370502;19;1650;-62
2023/09/17 13:48:29;;;;;;;;;;;;;;;;;;7370072;19;1874;-62
2023/09/17 13:50:57;;;;;;;;;;;;;;;;;;7370747;19;1653;-62
2023/09/17 13:53:25;;;;;;;;;;;;;;;;;;7370553;19;1713;-61
2023/09/17 13:55:54;;;;;;;;;;;;;;;;;;7368668;19;1729;-61
2023/09/17 13:58:22;;;;;;;;;;;;;;;;;;7370566;19;1439;-59
2023/09/17 14:00:52;;;;;;;;;;;;;;;;;;7369609;19;1730;-61
2023/09/17 14:03:21;;;;;;;;;;;;;;;;;;7369741;19;1842;-61
2023/09/17 14:05:49;;;;;;;;;;;;;;;;;;7366377;19;1699;-61
2023/09/17 14:08:17;;;;;;;;;;;;;;;;;;7369629;19;1684;-62
2023/09/17 14:10:45;;;;;;;;;;;;;;;;;;7371128;19;1812;-62
2023/09/17 14:13:15;;;;;;;;;;;;;;;;;;7369777;19;1591;-59
2023/09/17 14:15:43;;;;;;;;;;;;;;;;;;7369197;19;1721;-61
2023/09/17 14:18:11;;;;;;;;;;;;;;;;;;7365421;19;1338;-63
2023/09/17 14:20:39;;;;;;;;;;;;;;;;;;7366669;19;843;-63
2023/09/17 14:23:07;;;;;;;;;;;;;;;;;;7365365;19;1841;-63
2023/09/17 14:25:36;;;;;;;;;;;;;;;;;;7365876;19;1795;-63
2023/09/17 14:28:04;;;;;;;;;;;;;;;;;;7367643;19;1813;-62
2023/09/17 14:30:33;;;;;;;;;;;;;;;;;;7368808;19;1431;-64
2023/09/17 14:33:02;;;;;;;;;;;;;;;;;;7366265;19;925;-63
2023/09/17 14:35:30;;;;;;;;;;;;;;;;;;7366049;19;865;-62
2023/09/17 14:37:58;;;;;;;;;;;;;;;;;;7365492;19;1801;-63
2023/09/17 14:40:26;;;;;;;;;;;;;;;;;;7371198;19;1651;-61
2023/09/17 14:42:54;;;;;;;;;;;;;;;;;;7365584;19;1911;-62
2023/09/17 14:45:23;;;;;;;;;;;;;;;;;;7365190;19;1877;-63
2023/09/17 14:47:51;;;;;;;;;;;;;;;;;;7368362;19;1815;-61
2023/09/17 14:50:19;;;;;;;;;;;;;;;;;;7370376;19;1451;-65
2023/09/17 14:52:47;;;;;;;;;;;;;;;;;;7366229;19;2118;-64
2023/09/17 14:55:15;;;;;;;;;;;;;;;;;;7368836;19;1458;-62
2023/09/17 14:57:43;;;;;;;;;;;;;;;;;;7364888;19;2116;-63
2023/09/17 15:00:14;;;;;;;;;;;;;;;;;;7369156;19;1444;-62
2023/09/17 15:02:42;;;;;;;;;;;;;;;;;;7365617;19;1834;-63
2023/09/17 15:05:10;;;;;;;;;;;;;;;;;;7364876;19;770;-60
2023/09/17 15:07:39;;;;;;;;;;;;;;;;;;7364803;19;1282;-60
2023/09/17 15:10:09;;;;;;;;;;;;;;;;;;7368933;19;1650;-62
2023/09/17 15:12:37;;;;;;;;;;;;;;;;;;7366599;19;803;-63
2023/09/17 15:15:05;;;;;;;;;;;;;;;;;;7364660;19;877;-62
2023/09/17 15:17:35;;;;;;;;;;;;;;;;;;7363995;19;1351;-61
2023/09/17 15:20:04;;;;;;;;;;;;;;;;;;7364474;19;945;-64
2023/09/17 15:22:33;;;;;;;;;;;;;;;;;;7364436;19;1853;-62
2023/09/17 15:25:01;;;;;;;;;;;;;;;;;;7364430;19;2174;-62
2023/09/17 15:27:29;;;;;;;;;;;;;;;;;;7368424;19;1762;-61
2023/09/17 15:29:57;;;;;;;;;;;;;;;;;;7364841;19;1976;-61
2023/09/17 15:32:25;;;;;;;;;;;;;;;;;;7369243;19;1504;-60
2023/09/17 15:34:54;;;;;;;;;;;;;;;;;;7365686;19;1758;-62
2023/09/17 15:37:22;;;;;;;;;;;;;;;;;;7373256;19;1659;-61
2023/09/17 15:39:50;;;;;;;;;;;;;;;;;;7371939;19;1802;-61
2023/09/17 15:42:18;;;;;;;;;;;;;;;;;;7374853;19;1308;-62
2023/09/17 15:44:46;;;;;;;;;;;;;;;;;;7368615;19;1927;-62
2023/09/17 15:47:14;;;;;;;;;;;;;;;;;;7374201;19;1438;-62
2023/09/17 15:49:42;;;;;;;;;;;;;;;;;;7371718;19;1911;-61
2023/09/17 15:52:10;;;;;;;;;;;;;;;;;;7372750;19;1612;-61
2023/09/17 15:54:39;;;;;;;;;;;;;;;;;;7372771;19;1454;-62
2023/09/17 15:57:08;;;;;;;;;;;;;;;;;;7371011;19;1708;-60
2023/09/17 15:59:36;;;;;;;;;;;;;;;;;;7373932;19;1521;-59
2023/09/17 16:02:04;;;;;;;;;;;;;;;;;;7371460;19;1678;-59
2023/09/17 16:04:34;;;;;;;;;;;;;;;;;;7370172;19;1867;-55
2023/09/17 16:07:03;;;;;;;;;;;;;;;;;;7371290;19;1371;-59
2023/09/17 16:09:32;;;;;;;;;;;;;;;;;;7374095;19;1902;-59
2023/09/17 16:12:00;;;;;;;;;;;;;;;;;;7373466;19;1591;-55
2023/09/17 16:14:28;;;;;;;;;;;;;;;;;;7374100;19;1513;-61
2023/09/17 16:16:56;;;;;;;;;;;;;;;;;;7370340;19;736;-59
2023/09/17 16:19:24;;;;;;;;;;;;;;;;;;7370720;19;1667;-59
2023/09/17 16:21:52;;;;;;;;;;;;;;;;;;7374213;19;1483;-60
2023/09/17 16:24:20;;;;;;;;;;;;;;;;;;7372790;19;1853;-60
2023/09/17 16:26:50;;;;;;;;;;;;;;;;;;7370996;19;1693;-60
2023/09/17 16:29:18;;;;;;;;;;;;;;;;;;7370760;19;1693;-60
2023/09/17 16:31:46;;;;;;;;;;;;;;;;;;7372240;19;1945;-60
2023/09/17 16:34:14;;;;;;;;;;;;;;;;;;7369378;19;817;-62
2023/09/17 16:36:42;;;;;;;;;;;;;;;;;;7370556;19;2059;-60
2023/09/17 16:39:10;;;;;;;;;;;;;;;;;;7367819;19;1761;-59
2023/09/17 16:41:39;;;;;;;;;;;;;;;;;;7371588;19;1745;-60
2023/09/17 16:44:07;;;;;;;;;;;;;;;;;;7369802;19;1977;-61
2023/09/17 16:46:35;;;;;;;;;;;;;;;;;;7371304;19;1665;-60
2023/09/17 16:49:03;;;;;;;;;;;;;;;;;;7368606;19;1734;-60
2023/09/17 16:51:31;;;;;;;;;;;;;;;;;;7368947;19;906;-55
2023/09/17 16:53:59;;;;;;;;;;;;;;;;;;7369110;19;1692;-61
2023/09/17 16:56:27;;;;;;;;;;;;;;;;;;7371313;19;1738;-60
2023/09/17 16:58:58;;;;;;;;;;;;;;;;;;7368285;19;1819;-60
2023/09/17 17:01:27;;;;;;;;;;;;;;;;;;7371864;19;1861;-60
2023/09/17 17:03:55;;;;;;;;;;;;;;;;;;7370420;19;1857;-60
2023/09/17 17:06:23;;;;;;;;;;;;;;;;;;7367664;19;801;-60
2023/09/17 17:08:51;;;;;;;;;;;;;;;;;;7368304;19;2059;-59
2023/09/17 17:11:19;;;;;;;;;;;;;;;;;;7372982;19;1378;-60
2023/09/17 17:13:47;;;;;;;;;;;;;;;;;;7368235;19;818;-59